createdAt,value
2018-06-28T00:00:46.593Z,11.05
2018-06-28T00:01:46.522Z,11.00
2018-06-28T00:02:46.569Z,10.97
2018-06-28T00:03:46.607Z,10.93
2018-06-28T00:04:46.642Z,10.90
2018-06-28T00:05:46.648Z,10.91
2018-06-28T00:06:46.558Z,10.93
2018-06-28T00:07:46.569Z,10.90
2018-06-28T00:08:46.692Z,10.93
2018-06-28T00:09:46.608Z,10.93
2018-06-28T00:10:46.574Z,10.87
2018-06-28T00:11:46.564Z,10.87
2018-06-28T00:12:46.614Z,10.88
2018-06-28T00:13:46.612Z,10.86
2018-06-28T00:14:46.546Z,10.81
2018-06-28T00:15:46.613Z,10.80
2018-06-28T00:16:46.616Z,10.79
2018-06-28T00:17:46.548Z,10.74
2018-06-28T00:18:46.639Z,10.71
2018-06-28T00:19:46.616Z,10.68
2018-06-28T00:20:46.615Z,10.69
2018-06-28T00:21:46.555Z,10.68
2018-06-28T00:22:46.538Z,10.69
2018-06-28T00:23:46.633Z,10.75
2018-06-28T00:24:46.562Z,10.81
2018-06-28T00:25:46.611Z,10.79
2018-06-28T00:26:46.616Z,10.84
2018-06-28T00:27:46.526Z,10.83
2018-06-28T00:28:46.610Z,10.86
2018-06-28T00:29:46.509Z,10.84
2018-06-28T00:30:46.540Z,10.84
2018-06-28T00:31:46.561Z,10.86
2018-06-28T00:32:46.586Z,10.88
2018-06-28T00:33:46.587Z,10.88
2018-06-28T00:34:46.541Z,10.87
2018-06-28T00:35:46.564Z,10.83
2018-06-28T00:36:46.626Z,10.80
2018-06-28T00:37:46.685Z,10.77
2018-06-28T00:38:46.581Z,10.75
2018-06-28T00:39:46.657Z,10.72
2018-06-28T00:40:46.622Z,10.72
2018-06-28T00:41:46.590Z,10.69
2018-06-28T00:42:46.592Z,10.68
2018-06-28T00:43:46.636Z,10.67
2018-06-28T00:44:46.670Z,10.68
2018-06-28T00:45:46.675Z,10.68
2018-06-28T00:46:46.659Z,10.67
2018-06-28T00:47:46.641Z,10.65
2018-06-28T00:48:46.600Z,10.63
2018-06-28T00:49:46.673Z,10.61
2018-06-28T00:50:46.660Z,10.61
2018-06-28T00:51:46.605Z,10.63
2018-06-28T00:52:46.622Z,10.63
2018-06-28T00:53:46.627Z,10.68
2018-06-28T00:54:46.554Z,10.74
2018-06-28T00:55:46.627Z,10.75
2018-06-28T00:56:46.599Z,10.71
2018-06-28T00:57:46.638Z,10.71
2018-06-28T00:58:46.580Z,10.68
2018-06-28T00:59:46.569Z,10.67
2018-06-28T01:00:46.510Z,10.61
2018-06-28T01:01:46.564Z,10.58
2018-06-28T01:02:46.679Z,10.56
2018-06-28T01:03:46.565Z,10.52
2018-06-28T01:04:46.668Z,10.50
2018-06-28T01:05:46.660Z,10.50
2018-06-28T01:06:46.679Z,10.52
2018-06-28T01:07:46.626Z,10.52
2018-06-28T01:08:46.582Z,10.52
2018-06-28T01:09:46.680Z,10.50
2018-06-28T01:10:46.650Z,10.47
2018-06-28T01:11:46.646Z,10.42
2018-06-28T01:12:46.567Z,10.38
2018-06-28T01:13:46.610Z,10.35
2018-06-28T01:14:46.617Z,10.32
2018-06-28T01:15:46.622Z,10.30
2018-06-28T01:16:46.608Z,10.24
2018-06-28T01:17:46.680Z,10.25
2018-06-28T01:18:46.615Z,10.20
2018-06-28T01:19:46.685Z,10.16
2018-06-28T01:20:46.629Z,10.16
2018-06-28T01:21:46.694Z,10.17
2018-06-28T01:22:46.588Z,10.14
2018-06-28T01:23:46.660Z,10.06
2018-06-28T01:24:46.636Z,10.02
2018-06-28T01:25:46.589Z,10.01
2018-06-28T01:26:46.662Z,10.00
2018-06-28T01:27:46.663Z,9.91
2018-06-28T01:28:46.662Z,9.91
2018-06-28T01:29:46.593Z,9.91
2018-06-28T01:30:46.662Z,9.91
2018-06-28T01:31:46.664Z,9.83
2018-06-28T01:32:46.600Z,9.83
2018-06-28T01:33:46.662Z,9.83
2018-06-28T01:34:46.664Z,9.84
2018-06-28T01:35:46.665Z,9.83
2018-06-28T01:36:46.665Z,9.82
2018-06-28T01:37:46.616Z,9.80
2018-06-28T01:38:46.601Z,9.78
2018-06-28T01:39:46.671Z,9.76
2018-06-28T01:40:46.608Z,9.73
2018-06-28T01:41:46.669Z,9.72
2018-06-28T01:42:46.615Z,9.72
2018-06-28T01:43:46.575Z,9.72
2018-06-28T01:44:46.631Z,9.73
2018-06-28T01:45:46.640Z,9.78
2018-06-28T01:46:46.727Z,9.72
2018-06-28T01:47:46.683Z,9.69
2018-06-28T01:48:46.658Z,9.71
2018-06-28T01:49:46.672Z,9.71
2018-06-28T01:50:46.711Z,9.69
2018-06-28T01:51:46.672Z,9.71
2018-06-28T01:52:46.544Z,9.76
2018-06-28T01:53:46.671Z,9.80
2018-06-28T01:54:46.582Z,9.84
2018-06-28T01:55:46.618Z,9.87
2018-06-28T01:56:46.614Z,9.87
2018-06-28T01:57:46.665Z,9.82
2018-06-28T01:58:46.552Z,9.79
2018-06-28T01:59:46.679Z,9.76
2018-06-28T02:00:46.615Z,9.76
2018-06-28T02:01:46.678Z,9.75
2018-06-28T02:02:46.682Z,9.78
2018-06-28T02:03:46.620Z,9.75
2018-06-28T02:04:46.669Z,9.73
2018-06-28T02:05:46.723Z,9.75
2018-06-28T02:06:46.646Z,9.75
2018-06-28T02:07:46.717Z,9.75
2018-06-28T02:08:46.717Z,9.73
2018-06-28T02:09:46.614Z,9.71
2018-06-28T02:10:46.727Z,9.65
2018-06-28T02:11:46.641Z,9.61
2018-06-28T02:12:46.721Z,9.58
2018-06-28T02:13:46.613Z,9.54
2018-06-28T02:14:46.688Z,9.50
2018-06-28T02:15:46.691Z,9.47
2018-06-28T02:16:46.696Z,9.47
2018-06-28T02:17:46.725Z,9.47
2018-06-28T02:18:46.716Z,9.46
2018-06-28T02:19:46.658Z,9.42
2018-06-28T02:20:46.599Z,9.40
2018-06-28T02:21:46.632Z,9.40
2018-06-28T02:22:46.593Z,9.36
2018-06-28T02:23:46.751Z,9.34
2018-06-28T02:24:46.720Z,9.31
2018-06-28T02:25:46.718Z,9.28
2018-06-28T02:26:46.727Z,9.28
2018-06-28T02:27:46.719Z,9.28
2018-06-28T02:28:46.728Z,9.30
2018-06-28T02:29:46.663Z,9.27
2018-06-28T02:30:46.606Z,9.30
2018-06-28T02:31:46.731Z,9.25
2018-06-28T02:32:46.723Z,9.23
2018-06-28T02:33:46.704Z,9.23
2018-06-28T02:34:46.641Z,9.20
2018-06-28T02:35:46.636Z,9.20
2018-06-28T02:36:46.705Z,9.22
2018-06-28T02:37:46.639Z,9.18
2018-06-28T02:38:46.646Z,9.16
2018-06-28T02:39:46.706Z,9.18
2018-06-28T02:40:46.644Z,9.16
2018-06-28T02:41:46.710Z,9.12
2018-06-28T02:42:46.728Z,9.05
2018-06-28T02:43:46.708Z,9.01
2018-06-28T02:44:46.709Z,9.00
2018-06-28T02:45:46.643Z,9.00
2018-06-28T02:46:46.653Z,9.01
2018-06-28T02:47:46.646Z,9.02
2018-06-28T02:48:46.650Z,9.02
2018-06-28T02:49:46.652Z,9.04
2018-06-28T02:50:46.721Z,9.05
2018-06-28T02:51:46.657Z,9.01
2018-06-28T02:52:46.648Z,8.98
2018-06-28T02:53:46.677Z,9.00
2018-06-28T02:54:46.657Z,8.96
2018-06-28T02:55:46.637Z,8.96
2018-06-28T02:56:46.675Z,8.91
2018-06-28T02:57:46.587Z,8.90
2018-06-28T02:58:46.677Z,8.89
2018-06-28T02:59:46.712Z,8.89
2018-06-28T03:00:46.659Z,8.91
2018-06-28T03:01:46.749Z,9.00
2018-06-28T03:02:46.649Z,8.98
2018-06-28T03:03:46.624Z,9.02
2018-06-28T03:04:46.648Z,9.02
2018-06-28T03:05:46.743Z,9.02
2018-06-28T03:06:46.838Z,9.00
2018-06-28T03:07:46.756Z,9.01
2018-06-28T03:08:46.732Z,9.01
2018-06-28T03:09:46.731Z,9.02
2018-06-28T03:10:46.701Z,9.04
2018-06-28T03:11:46.694Z,9.07
2018-06-28T03:12:46.668Z,9.07
2018-06-28T03:13:46.653Z,9.05
2018-06-28T03:14:46.726Z,9.02
2018-06-28T03:15:46.727Z,8.98
2018-06-28T03:16:46.656Z,8.96
2018-06-28T03:17:46.728Z,8.93
2018-06-28T03:18:46.721Z,8.91
2018-06-28T03:19:46.723Z,8.93
2018-06-28T03:20:46.651Z,8.91
2018-06-28T03:21:46.721Z,8.89
2018-06-28T03:22:46.730Z,8.89
2018-06-28T03:23:46.752Z,8.87
2018-06-28T03:24:46.684Z,8.87
2018-06-28T03:25:46.762Z,8.87
2018-06-28T03:26:46.677Z,8.87
2018-06-28T03:27:46.777Z,8.87
2018-06-28T03:28:46.736Z,8.89
2018-06-28T03:29:46.652Z,8.87
2018-06-28T03:30:46.660Z,8.89
2018-06-28T03:31:46.764Z,8.87
2018-06-28T03:32:46.706Z,8.86
2018-06-28T03:33:46.648Z,8.87
2018-06-28T03:34:46.708Z,8.87
2018-06-28T03:35:46.644Z,8.91
2018-06-28T03:36:46.746Z,8.91
2018-06-28T03:37:46.754Z,8.94
2018-06-28T03:38:46.745Z,8.98
2018-06-28T03:39:46.772Z,8.98
2018-06-28T03:40:46.745Z,9.01
2018-06-28T03:41:46.705Z,9.04
2018-06-28T03:42:46.783Z,9.05
2018-06-28T03:43:46.708Z,9.08
2018-06-28T03:44:46.667Z,9.11
2018-06-28T03:45:46.683Z,9.13
2018-06-28T03:46:46.677Z,9.13
2018-06-28T03:47:46.624Z,9.12
2018-06-28T03:48:46.620Z,9.13
2018-06-28T03:49:46.617Z,9.12
2018-06-28T03:50:46.709Z,9.11
2018-06-28T03:51:46.687Z,9.13
2018-06-28T03:52:46.732Z,9.16
2018-06-28T03:53:46.754Z,9.18
2018-06-28T03:54:46.761Z,9.19
2018-06-28T03:55:46.692Z,9.22
2018-06-28T03:56:46.756Z,9.20
2018-06-28T03:57:46.760Z,9.22
2018-06-28T03:58:46.690Z,9.22
2018-06-28T03:59:46.688Z,9.27
2018-06-28T04:00:46.757Z,9.23
2018-06-28T04:01:46.726Z,9.30
2018-06-28T04:02:46.782Z,9.32
2018-06-28T04:03:46.691Z,9.34
2018-06-28T04:04:46.648Z,9.34
2018-06-28T04:05:46.695Z,9.38
2018-06-28T04:06:46.701Z,9.39
2018-06-28T04:07:46.701Z,9.42
2018-06-28T04:08:46.656Z,9.44
2018-06-28T04:09:46.768Z,9.47
2018-06-28T04:10:46.632Z,9.47
2018-06-28T04:11:46.733Z,9.54
2018-06-28T04:12:46.704Z,9.55
2018-06-28T04:13:46.745Z,9.58
2018-06-28T04:14:46.776Z,9.61
2018-06-28T04:15:46.799Z,9.65
2018-06-28T04:16:46.773Z,9.68
2018-06-28T04:17:46.674Z,9.73
2018-06-28T04:18:46.738Z,9.75
2018-06-28T04:19:46.696Z,9.76
2018-06-28T04:20:46.675Z,9.80
2018-06-28T04:21:46.694Z,9.80
2018-06-28T04:22:46.812Z,9.83
2018-06-28T04:23:46.694Z,9.87
2018-06-28T04:24:46.745Z,9.95
2018-06-28T04:25:46.776Z,9.98
2018-06-28T04:26:46.779Z,10.00
2018-06-28T04:27:46.814Z,10.04
2018-06-28T04:28:46.750Z,10.09
2018-06-28T04:29:46.701Z,10.13
2018-06-28T04:30:46.700Z,10.16
2018-06-28T04:31:46.717Z,10.18
2018-06-28T04:32:46.812Z,10.23
2018-06-28T04:33:46.651Z,10.25
2018-06-28T04:34:46.745Z,10.30
2018-06-28T04:35:46.684Z,10.39
2018-06-28T04:36:46.739Z,10.45
2018-06-28T04:37:46.682Z,10.53
2018-06-28T04:38:46.708Z,10.57
2018-06-28T04:39:46.725Z,10.61
2018-06-28T04:40:46.674Z,10.65
2018-06-28T04:41:46.654Z,10.69
2018-06-28T04:42:46.682Z,10.77
2018-06-28T04:43:46.788Z,10.80
2018-06-28T04:44:46.788Z,10.83
2018-06-28T04:45:46.727Z,10.88
2018-06-28T04:46:46.798Z,10.93
2018-06-28T04:47:46.724Z,10.94
2018-06-28T04:48:46.722Z,10.97
2018-06-28T04:49:46.836Z,11.00
2018-06-28T04:50:46.851Z,11.06
2018-06-28T04:51:46.727Z,11.14
2018-06-28T04:52:46.727Z,11.18
2018-06-28T04:53:46.773Z,11.24
2018-06-28T04:54:46.872Z,11.31
2018-06-28T04:55:46.759Z,11.36
2018-06-28T04:56:46.696Z,11.43
2018-06-28T04:57:46.827Z,11.50
2018-06-28T04:58:46.793Z,11.54
2018-06-28T04:59:46.717Z,11.58
2018-06-28T05:00:46.823Z,11.64
2018-06-28T05:01:46.769Z,11.68
2018-06-28T05:02:46.805Z,11.72
2018-06-28T05:03:46.723Z,11.76
2018-06-28T05:04:46.784Z,11.82
2018-06-28T05:05:46.764Z,11.87
2018-06-28T05:06:46.760Z,11.92
2018-06-28T05:07:46.706Z,11.98
2018-06-28T05:08:46.767Z,12.06
2018-06-28T05:09:46.814Z,12.12
2018-06-28T05:10:46.825Z,12.18
2018-06-28T05:11:46.830Z,12.22
2018-06-28T05:12:46.831Z,12.26
2018-06-28T05:13:46.761Z,12.32
2018-06-28T05:14:46.789Z,12.39
2018-06-28T05:15:46.772Z,12.43
2018-06-28T05:16:46.830Z,12.47
2018-06-28T05:17:46.811Z,12.54
2018-06-28T05:18:46.780Z,12.60
2018-06-28T05:19:46.773Z,12.65
2018-06-28T05:20:46.814Z,12.71
2018-06-28T05:21:46.718Z,12.76
2018-06-28T05:22:46.853Z,12.77
2018-06-28T05:23:46.736Z,12.83
2018-06-28T05:24:46.722Z,12.87
2018-06-28T05:25:46.803Z,12.92
2018-06-28T05:26:46.810Z,12.95
2018-06-28T05:27:46.725Z,12.99
2018-06-28T05:28:46.806Z,13.05
2018-06-28T05:29:46.755Z,13.07
2018-06-28T05:30:46.685Z,13.13
2018-06-28T05:31:46.752Z,13.14
2018-06-28T05:32:46.809Z,13.20
2018-06-28T05:33:46.822Z,13.24
2018-06-28T05:34:46.893Z,13.28
2018-06-28T05:35:46.896Z,13.32
2018-06-28T05:36:46.724Z,13.35
2018-06-28T05:37:46.789Z,13.40
2018-06-28T05:38:46.787Z,13.47
2018-06-28T05:39:46.842Z,13.53
2018-06-28T05:40:46.858Z,13.54
2018-06-28T05:41:46.767Z,13.59
2018-06-28T05:42:46.797Z,13.65
2018-06-28T05:43:46.857Z,13.70
2018-06-28T05:44:46.734Z,13.76
2018-06-28T05:45:46.731Z,13.80
2018-06-28T05:46:46.789Z,13.84
2018-06-28T05:47:46.811Z,13.91
2018-06-28T05:48:46.848Z,13.99
2018-06-28T05:49:46.796Z,14.14
2018-06-28T05:50:46.829Z,14.29
2018-06-28T05:51:46.857Z,14.51
2018-06-28T05:52:46.774Z,14.73
2018-06-28T05:53:46.730Z,14.96
2018-06-28T05:54:46.756Z,15.19
2018-06-28T05:55:46.754Z,15.43
2018-06-28T05:56:46.836Z,15.65
2018-06-28T05:57:46.857Z,15.79
2018-06-28T05:58:46.876Z,15.87
2018-06-28T05:59:46.862Z,15.95
2018-06-28T06:00:46.809Z,16.13
2018-06-28T06:01:47.035Z,16.28
2018-06-28T06:02:46.794Z,16.46
2018-06-28T06:03:46.763Z,16.57
2018-06-28T06:04:46.877Z,16.83
2018-06-28T06:05:46.811Z,16.98
2018-06-28T06:06:46.879Z,17.18
2018-06-28T06:07:46.869Z,17.33
2018-06-28T06:08:46.823Z,17.36
2018-06-28T06:09:46.769Z,17.25
2018-06-28T06:10:46.748Z,17.35
2018-06-28T06:11:46.845Z,17.58
2018-06-28T06:12:46.828Z,17.68
2018-06-28T06:13:46.879Z,17.62
2018-06-28T06:14:46.809Z,17.65
2018-06-28T06:15:46.759Z,17.66
2018-06-28T06:16:46.850Z,17.65
2018-06-28T06:17:46.852Z,17.66
2018-06-28T06:18:46.817Z,17.71
2018-06-28T06:19:46.889Z,17.72
2018-06-28T06:20:46.831Z,17.79
2018-06-28T06:21:46.898Z,17.88
2018-06-28T06:22:46.760Z,17.94
2018-06-28T06:23:46.759Z,18.02
2018-06-28T06:24:46.882Z,17.98
2018-06-28T06:25:46.813Z,17.85
2018-06-28T06:26:46.878Z,18.02
2018-06-28T06:27:46.887Z,18.13
2018-06-28T06:28:46.858Z,18.18
2018-06-28T06:29:46.861Z,18.20
2018-06-28T06:30:46.836Z,18.40
2018-06-28T06:31:46.887Z,18.52
2018-06-28T06:32:46.934Z,18.65
2018-06-28T06:33:46.756Z,18.83
2018-06-28T06:34:46.821Z,18.83
2018-06-28T06:35:46.760Z,18.94
2018-06-28T06:36:46.900Z,18.99
2018-06-28T06:37:46.904Z,19.15
2018-06-28T06:38:46.767Z,18.95
2018-06-28T06:39:46.769Z,19.20
2018-06-28T06:40:46.885Z,19.27
2018-06-28T06:41:46.877Z,19.31
2018-06-28T06:42:46.884Z,19.38
2018-06-28T06:43:46.820Z,19.46
2018-06-28T06:44:46.858Z,19.40
2018-06-28T06:45:46.777Z,19.53
2018-06-28T06:46:46.863Z,19.68
2018-06-28T06:47:46.774Z,19.87
2018-06-28T06:48:46.854Z,19.83
2018-06-28T06:49:46.800Z,19.85
2018-06-28T06:50:46.759Z,19.83
2018-06-28T06:51:46.743Z,19.91
2018-06-28T06:52:46.745Z,20.10
2018-06-28T06:53:46.862Z,20.02
2018-06-28T06:54:46.830Z,20.28
2018-06-28T06:55:46.763Z,20.57
2018-06-28T06:56:46.827Z,20.69
2018-06-28T06:57:46.766Z,20.66
2018-06-28T06:58:46.803Z,20.68
2018-06-28T06:59:46.864Z,20.66
2018-06-28T07:00:46.769Z,20.65
2018-06-28T07:01:46.837Z,20.60
2018-06-28T07:02:46.811Z,20.82
2018-06-28T07:03:46.912Z,20.97
2018-06-28T07:04:46.905Z,21.16
2018-06-28T07:05:46.907Z,21.42
2018-06-28T07:06:46.880Z,21.60
2018-06-28T07:07:46.887Z,21.57
2018-06-28T07:08:46.904Z,21.47
2018-06-28T07:09:46.915Z,21.32
2018-06-28T07:10:46.908Z,21.28
2018-06-28T07:11:46.862Z,21.47
2018-06-28T07:12:46.786Z,21.68
2018-06-28T07:13:46.882Z,21.75
2018-06-28T07:14:46.845Z,21.89
2018-06-28T07:15:46.929Z,22.01
2018-06-28T07:16:46.891Z,21.97
2018-06-28T07:17:46.889Z,22.02
2018-06-28T07:18:46.823Z,22.14
2018-06-28T07:19:46.896Z,22.12
2018-06-28T07:20:46.826Z,22.17
2018-06-28T07:21:46.894Z,22.28
2018-06-28T07:22:46.965Z,22.27
2018-06-28T07:23:46.919Z,22.21
2018-06-28T07:24:46.800Z,22.34
2018-06-28T07:25:46.853Z,22.43
2018-06-28T07:26:46.922Z,22.27
2018-06-28T07:27:46.877Z,22.25
2018-06-28T07:28:46.880Z,22.38
2018-06-28T07:29:46.839Z,22.68
2018-06-28T07:30:46.879Z,22.90
2018-06-28T07:31:46.837Z,22.86
2018-06-28T07:32:46.975Z,23.04
2018-06-28T07:33:46.837Z,22.83
2018-06-28T07:34:46.801Z,22.79
2018-06-28T07:35:46.905Z,22.95
2018-06-28T07:36:46.903Z,23.11
2018-06-28T07:37:46.853Z,23.27
2018-06-28T07:38:46.903Z,23.50
2018-06-28T07:39:46.904Z,23.65
2018-06-28T07:40:46.837Z,23.61
2018-06-28T07:41:46.853Z,23.64
2018-06-28T07:42:46.911Z,23.56
2018-06-28T07:43:46.840Z,23.65
2018-06-28T07:44:46.907Z,23.69
2018-06-28T07:45:46.840Z,23.67
2018-06-28T07:46:46.944Z,23.67
2018-06-28T07:47:47.089Z,23.86
2018-06-28T07:48:46.851Z,23.83
2018-06-28T07:49:47.097Z,23.94
2018-06-28T07:50:47.079Z,23.78
2018-06-28T07:51:46.851Z,23.85
2018-06-28T07:52:46.846Z,23.87
2018-06-28T07:53:46.918Z,24.08
2018-06-28T07:54:46.914Z,24.05
2018-06-28T07:55:46.982Z,24.05
2018-06-28T07:56:46.847Z,24.08
2018-06-28T07:57:46.919Z,24.16
2018-06-28T07:58:46.851Z,24.22
2018-06-28T07:59:47.009Z,24.26
2018-06-28T08:00:46.918Z,24.53
2018-06-28T08:01:46.856Z,24.81
2018-06-28T08:02:46.854Z,24.57
2018-06-28T08:03:46.876Z,24.63
2018-06-28T08:04:46.886Z,24.75
2018-06-28T08:05:46.884Z,24.67
2018-06-28T08:06:46.833Z,24.74
2018-06-28T08:07:46.900Z,24.85
2018-06-28T08:08:46.941Z,24.63
2018-06-28T08:09:47.005Z,24.68
2018-06-28T08:10:46.900Z,24.59
2018-06-28T08:11:46.894Z,24.57
2018-06-28T08:12:46.928Z,24.63
2018-06-28T08:13:46.953Z,24.90
2018-06-28T08:14:46.903Z,24.95
2018-06-28T08:15:46.890Z,24.93
2018-06-28T08:16:46.910Z,24.78
2018-06-28T08:17:46.895Z,24.79
2018-06-28T08:18:46.837Z,24.90
2018-06-28T08:19:46.916Z,24.79
2018-06-28T08:20:46.928Z,24.72
2018-06-28T08:21:46.972Z,24.82
2018-06-28T08:22:46.970Z,25.02
2018-06-28T08:23:46.907Z,25.31
2018-06-28T08:24:46.936Z,25.53
2018-06-28T08:25:46.953Z,25.40
2018-06-28T08:26:46.840Z,25.38
2018-06-28T08:27:46.954Z,25.46
2018-06-28T08:28:46.959Z,25.24
2018-06-28T08:29:46.966Z,25.26
2018-06-28T08:30:46.937Z,25.42
2018-06-28T08:31:46.978Z,25.57
2018-06-28T08:32:46.974Z,25.71
2018-06-28T08:33:46.842Z,25.86
2018-06-28T08:34:46.874Z,25.75
2018-06-28T08:35:46.909Z,25.55
2018-06-28T08:36:46.939Z,25.68
2018-06-28T08:37:46.876Z,25.91
2018-06-28T08:38:46.956Z,25.97
2018-06-28T08:39:46.919Z,25.95
2018-06-28T08:40:46.880Z,25.99
2018-06-28T08:41:46.877Z,26.17
2018-06-28T08:42:46.945Z,26.38
2018-06-28T08:43:46.947Z,26.25
2018-06-28T08:44:46.867Z,26.36
2018-06-28T08:45:46.867Z,26.49
2018-06-28T08:46:46.934Z,26.62
2018-06-28T08:47:46.857Z,26.67
2018-06-28T08:48:46.944Z,26.52
2018-06-28T08:49:46.887Z,26.34
2018-06-28T08:50:46.858Z,26.10
2018-06-28T08:51:46.935Z,26.24
2018-06-28T08:52:46.856Z,26.25
2018-06-28T08:53:46.862Z,26.38
2018-06-28T08:54:46.914Z,26.30
2018-06-28T08:55:47.036Z,26.04
2018-06-28T08:56:46.978Z,25.97
2018-06-28T08:57:47.024Z,26.03
2018-06-28T08:58:46.981Z,26.25
2018-06-28T08:59:46.919Z,26.29
2018-06-28T09:00:46.936Z,26.36
2018-06-28T09:01:46.975Z,26.29
2018-06-28T09:02:46.987Z,26.38
2018-06-28T09:03:46.898Z,26.51
2018-06-28T09:04:46.863Z,26.54
2018-06-28T09:05:46.978Z,26.72
2018-06-28T09:06:46.915Z,26.84
2018-06-28T09:07:46.963Z,26.89
2018-06-28T09:08:46.953Z,26.89
2018-06-28T09:09:46.954Z,26.92
2018-06-28T09:10:46.895Z,26.96
2018-06-28T09:11:46.894Z,26.33
2018-06-28T09:12:46.900Z,26.08
2018-06-28T09:13:46.958Z,26.10
2018-06-28T09:14:46.991Z,26.34
2018-06-28T09:15:46.999Z,26.58
2018-06-28T09:16:46.888Z,26.68
2018-06-28T09:17:46.934Z,26.85
2018-06-28T09:18:46.944Z,26.96
2018-06-28T09:19:46.907Z,27.15
2018-06-28T09:20:46.876Z,27.34
2018-06-28T09:21:46.967Z,27.50
2018-06-28T09:22:47.058Z,27.55
2018-06-28T09:23:46.999Z,27.07
2018-06-28T09:24:47.007Z,26.44
2018-06-28T09:25:46.897Z,26.43
2018-06-28T09:26:47.056Z,26.47
2018-06-28T09:27:46.955Z,26.45
2018-06-28T09:28:46.900Z,26.55
2018-06-28T09:29:47.004Z,26.62
2018-06-28T09:30:46.958Z,26.92
2018-06-28T09:31:46.981Z,27.06
2018-06-28T09:32:46.935Z,26.99
2018-06-28T09:33:46.949Z,27.08
2018-06-28T09:34:46.943Z,27.23
2018-06-28T09:35:46.954Z,27.08
2018-06-28T09:36:47.012Z,27.37
2018-06-28T09:37:46.945Z,27.47
2018-06-28T09:38:46.908Z,27.47
2018-06-28T09:39:46.944Z,27.11
2018-06-28T09:40:47.005Z,26.93
2018-06-28T09:41:46.942Z,27.11
2018-06-28T09:42:46.983Z,26.90
2018-06-28T09:43:47.002Z,27.00
2018-06-28T09:44:46.922Z,27.01
2018-06-28T09:45:46.925Z,27.36
2018-06-28T09:46:46.988Z,27.40
2018-06-28T09:47:46.988Z,27.17
2018-06-28T09:48:47.083Z,27.22
2018-06-28T09:49:46.990Z,27.37
2018-06-28T09:50:46.989Z,27.55
2018-06-28T09:51:46.927Z,27.61
2018-06-28T09:52:47.032Z,27.85
2018-06-28T09:53:46.932Z,28.25
2018-06-28T09:54:46.999Z,28.26
2018-06-28T09:55:46.869Z,28.09
2018-06-28T09:56:46.972Z,27.93
2018-06-28T09:57:46.975Z,27.86
2018-06-28T09:58:46.986Z,27.92
2018-06-28T09:59:46.934Z,27.96
2018-06-28T10:00:46.983Z,28.29
2018-06-28T10:01:46.862Z,28.54
2018-06-28T10:02:46.993Z,28.75
2018-06-28T10:03:46.924Z,28.58
2018-06-28T10:04:46.889Z,28.39
2018-06-28T10:05:46.989Z,28.02
2018-06-28T10:06:47.031Z,27.55
2018-06-28T10:07:46.986Z,27.39
2018-06-28T10:08:46.954Z,27.40
2018-06-28T10:09:46.943Z,27.39
2018-06-28T10:10:46.923Z,27.58
2018-06-28T10:11:46.955Z,27.46
2018-06-28T10:12:47.011Z,27.25
2018-06-28T10:13:46.934Z,27.23
2018-06-28T10:14:47.040Z,27.32
2018-06-28T10:15:46.870Z,27.12
2018-06-28T10:16:46.986Z,27.41
2018-06-28T10:17:46.931Z,27.81
2018-06-28T10:18:46.993Z,28.24
2018-06-28T10:19:46.947Z,28.44
2018-06-28T10:20:46.920Z,28.68
2018-06-28T10:21:46.935Z,28.86
2018-06-28T10:22:46.992Z,28.60
2018-06-28T10:23:46.937Z,28.73
2018-06-28T10:24:47.015Z,28.61
2018-06-28T10:25:47.023Z,28.37
2018-06-28T10:26:47.014Z,28.03
2018-06-28T10:27:46.964Z,27.70
2018-06-28T10:28:47.016Z,27.51
2018-06-28T10:29:46.952Z,27.46
2018-06-28T10:30:47.034Z,27.32
2018-06-28T10:31:46.904Z,27.21
2018-06-28T10:32:47.000Z,27.41
2018-06-28T10:33:46.945Z,27.10
2018-06-28T10:34:46.891Z,27.34
2018-06-28T10:35:46.892Z,27.51
2018-06-28T10:36:46.975Z,27.61
2018-06-28T10:37:47.007Z,27.80
2018-06-28T10:38:46.926Z,27.85
2018-06-28T10:39:47.005Z,27.80
2018-06-28T10:40:47.014Z,27.93
2018-06-28T10:41:47.010Z,28.03
2018-06-28T10:42:47.018Z,27.81
2018-06-28T10:43:47.011Z,27.47
2018-06-28T10:44:46.932Z,27.00
2018-06-28T10:45:46.948Z,27.07
2018-06-28T10:46:47.007Z,26.92
2018-06-28T10:47:46.970Z,26.96
2018-06-28T10:48:47.046Z,26.82
2018-06-28T10:49:47.033Z,27.18
2018-06-28T10:50:46.950Z,27.07
2018-06-28T10:51:47.009Z,27.04
2018-06-28T10:52:46.932Z,27.25
2018-06-28T10:53:46.999Z,27.51
2018-06-28T10:54:47.018Z,27.89
2018-06-28T10:55:46.964Z,27.89
2018-06-28T10:56:46.968Z,28.13
2018-06-28T10:57:46.923Z,27.86
2018-06-28T10:58:47.021Z,27.86
2018-06-28T10:59:46.941Z,27.52
2018-06-28T11:00:46.938Z,27.40
2018-06-28T11:01:46.978Z,27.34
2018-06-28T11:02:46.918Z,27.62
2018-06-28T11:03:46.990Z,27.99
2018-06-28T11:04:47.181Z,28.31
2018-06-28T11:05:46.950Z,28.36
2018-06-28T11:06:47.044Z,28.17
2018-06-28T11:07:47.015Z,28.32
2018-06-28T11:08:47.074Z,28.55
2018-06-28T11:09:47.067Z,28.53
2018-06-28T11:10:46.857Z,28.44
2018-06-28T11:11:47.008Z,28.69
2018-06-28T11:12:47.006Z,28.91
2018-06-28T11:13:47.074Z,28.95
2018-06-28T11:14:46.955Z,29.13
2018-06-28T11:15:47.079Z,29.09
2018-06-28T11:16:47.018Z,28.62
2018-06-28T11:17:46.990Z,28.60
2018-06-28T11:18:47.030Z,28.82
2018-06-28T11:19:47.013Z,28.86
2018-06-28T11:20:47.023Z,28.51
2018-06-28T11:21:47.008Z,28.42
2018-06-28T11:22:47.084Z,28.43
2018-06-28T11:23:47.033Z,28.17
2018-06-28T11:24:47.080Z,28.31
2018-06-28T11:25:47.149Z,28.14
2018-06-28T11:26:46.959Z,27.73
2018-06-28T11:27:47.019Z,27.48
2018-06-28T11:28:47.014Z,27.46
2018-06-28T11:29:47.014Z,27.26
2018-06-28T11:30:47.021Z,27.37
2018-06-28T11:31:47.085Z,27.44
2018-06-28T11:32:47.034Z,27.54
2018-06-28T11:33:47.058Z,27.62
2018-06-28T11:34:47.061Z,27.66
2018-06-28T11:35:47.064Z,27.55
2018-06-28T11:36:47.062Z,27.51
2018-06-28T11:37:46.998Z,27.06
2018-06-28T11:38:46.995Z,27.04
2018-06-28T11:39:47.065Z,26.81
2018-06-28T11:40:47.081Z,26.97
2018-06-28T11:41:47.065Z,27.04
2018-06-28T11:42:47.025Z,26.89
2018-06-28T11:43:47.063Z,26.92
2018-06-28T11:44:47.049Z,26.55
2018-06-28T11:45:46.988Z,26.32
2018-06-28T11:46:47.007Z,26.41
2018-06-28T11:47:47.074Z,26.13
2018-06-28T11:48:47.048Z,25.99
2018-06-28T11:49:47.094Z,26.24
2018-06-28T11:50:47.047Z,26.55
2018-06-28T11:51:47.045Z,26.67
2018-06-28T11:52:47.094Z,26.72
2018-06-28T11:53:47.111Z,26.72
2018-06-28T11:54:47.008Z,26.99
2018-06-28T11:55:47.038Z,26.99
2018-06-28T11:56:47.101Z,26.78
2018-06-28T11:57:46.982Z,26.70
2018-06-28T11:58:47.114Z,26.51
2018-06-28T11:59:47.031Z,26.48
2018-06-28T12:00:47.112Z,26.41
2018-06-28T12:01:46.986Z,26.55
2018-06-28T12:02:47.048Z,26.67
2018-06-28T12:03:47.107Z,26.96
2018-06-28T12:04:47.064Z,27.25
2018-06-28T12:05:46.942Z,27.65
2018-06-28T12:06:46.951Z,27.75
2018-06-28T12:07:46.957Z,27.39
2018-06-28T12:08:46.943Z,27.41
2018-06-28T12:09:47.007Z,27.70
2018-06-28T12:10:47.061Z,27.92
2018-06-28T12:11:47.008Z,28.02
2018-06-28T12:12:47.009Z,28.10
2018-06-28T12:13:47.019Z,28.33
2018-06-28T12:14:47.091Z,28.72
2018-06-28T12:15:47.022Z,28.86
2018-06-28T12:16:46.982Z,28.80
2018-06-28T12:17:47.095Z,28.54
2018-06-28T12:18:47.099Z,28.35
2018-06-28T12:19:47.025Z,28.10
2018-06-28T12:20:47.093Z,27.65
2018-06-28T12:21:47.095Z,27.61
2018-06-28T12:22:47.024Z,27.92
2018-06-28T12:23:47.030Z,28.37
2018-06-28T12:24:47.075Z,28.66
2018-06-28T12:25:47.113Z,28.57
2018-06-28T12:26:47.078Z,28.17
2018-06-28T12:27:46.999Z,28.36
2018-06-28T12:28:47.031Z,28.60
2018-06-28T12:29:47.030Z,28.54
2018-06-28T12:30:46.970Z,28.79
2018-06-28T12:31:46.998Z,28.69
2018-06-28T12:32:47.019Z,28.69
2018-06-28T12:33:47.102Z,28.58
2018-06-28T12:34:47.030Z,28.47
2018-06-28T12:35:47.101Z,28.33
2018-06-28T12:36:47.101Z,28.15
2018-06-28T12:37:47.034Z,27.96
2018-06-28T12:38:47.102Z,27.92
2018-06-28T12:39:47.103Z,27.58
2018-06-28T12:40:47.105Z,27.26
2018-06-28T12:41:47.106Z,27.03
2018-06-28T12:42:47.035Z,26.85
2018-06-28T12:43:47.036Z,26.75
2018-06-28T12:44:47.059Z,26.81
2018-06-28T12:45:47.070Z,26.89
2018-06-28T12:46:47.143Z,26.71
2018-06-28T12:47:47.109Z,26.70
2018-06-28T12:48:47.145Z,26.58
2018-06-28T12:49:47.134Z,26.62
2018-06-28T12:50:47.072Z,26.55
2018-06-28T12:51:47.049Z,26.44
2018-06-28T12:52:47.137Z,26.37
2018-06-28T12:53:47.078Z,26.34
2018-06-28T12:54:47.015Z,26.30
2018-06-28T12:55:47.015Z,26.32
2018-06-28T12:56:47.091Z,26.26
2018-06-28T12:57:47.089Z,26.14
2018-06-28T12:58:47.145Z,26.29